Kezdőlap
METAR-TAF:

METAR-TAF

Repülőterek :

Sankt Gallen, Svájc

földrajzi szélesség: 47-29-06N, földrajzi hosszúság: 009-33-43E, magasság: 398 m

Jelenlegi meteorológiai megfigyelések

A jelentés 13 perccel ezelõtt készült, 18:50 UTC
Szélcsend
Hőmérséklet 6°C
Páratartalom 87%
Légköri nyomás 1029 hPa
Látótávolság 10 km, vagy több
felhőtlen 1500 m magasságban, és nincs gomolyfelhõ

METAR: LSZR 221850Z 00000KT CAVOK 06/04 Q1029 NOSIG RMK O

Idő: 20:03 (19:03 UTC)

Előrejelzés

A jelentés 4 órával és 38 perccel ezelõtt készült, 14:25 UTC
Az előrejelzés 22-én 15 óra UTC és 22-én 24 óra UTC között érvényes
Északi szél 4 kt
Látótávolság 10 km, vagy több
felhőtlen 1500 m magasságban, és nincs gomolyfelhõ

TAF: LSZR 221425Z 2215/2224 36004KT CAVOK

Meteorológiai megfigyelések és előrejelzések több, mint 4000 repülőtéren (METAR és TAF jelentéseket).

A térképen piros és sárga pontok jelzik az elérhető meteorológiai állomásokat.

Mozgassa az egeret a pont fölött, hogy megjelenjen az állomás neve.

Azután kattintson az időjárási megfigyelések és előrejelzések megtekintéséhez.

A térkép megváltoztatása: kattintson a fekete keresztel jelölt zöld gombra ráközelítéshez, a vonallal jelölt zöld gombra távolításhoz, vagy a zöld nyilakra a szomszédos térképek eléréséhez.


METAR-TAF: